createdAt,value
2017-12-16T00:00:45.276Z,23.47
2017-12-16T00:03:12.792Z,26.47
2017-12-16T00:05:40.279Z,23.23
2017-12-16T00:08:07.760Z,22.67
2017-12-16T00:10:35.256Z,25.43
2017-12-16T00:13:02.756Z,21.63
2017-12-16T00:15:30.246Z,23.23
2017-12-16T00:17:57.782Z,18.90
2017-12-16T00:20:25.307Z,23.27
2017-12-16T00:22:52.793Z,22.83
2017-12-16T00:25:20.263Z,18.93
2017-12-16T00:27:47.781Z,18.47
2017-12-16T00:30:15.345Z,19.07
2017-12-16T00:32:42.817Z,21.90
2017-12-16T00:35:10.277Z,18.63
2017-12-16T00:37:37.738Z,17.03
2017-12-16T00:40:05.230Z,21.07
2017-12-16T00:42:33.659Z,22.30
2017-12-16T00:45:01.176Z,25.80
2017-12-16T00:47:28.675Z,18.30
2017-12-16T00:49:56.173Z,20.37
2017-12-16T00:52:23.661Z,21.97
2017-12-16T00:54:51.169Z,18.83
2017-12-16T00:57:18.640Z,21.90
2017-12-16T00:59:46.122Z,20.73
2017-12-16T01:02:13.631Z,23.77
2017-12-16T01:04:41.138Z,16.87
2017-12-16T01:07:08.652Z,24.30
2017-12-16T01:09:36.152Z,21.23
2017-12-16T01:12:03.650Z,21.33
2017-12-16T01:14:31.145Z,17.23
2017-12-16T01:16:58.682Z,20.90
2017-12-16T01:19:26.185Z,15.70
2017-12-16T01:21:53.711Z,20.77
2017-12-16T01:24:21.206Z,20.37
2017-12-16T01:26:48.704Z,24.87
2017-12-16T01:29:16.216Z,23.17
2017-12-16T01:31:43.689Z,24.73
2017-12-16T01:34:22.821Z,23.30
2017-12-16T01:39:59.121Z,20.77
2017-12-16T01:42:26.831Z,21.40
2017-12-16T01:44:54.329Z,20.10
2017-12-16T01:47:21.833Z,24.97
2017-12-16T01:49:49.339Z,23.53
2017-12-16T01:52:17.861Z,27.57
2017-12-16T01:54:45.357Z,22.67
2017-12-16T01:57:12.862Z,21.67
2017-12-16T01:59:40.373Z,30.37
2017-12-16T02:02:07.868Z,19.97
2017-12-16T02:04:35.378Z,20.27
2017-12-16T02:07:02.871Z,22.67
2017-12-16T02:09:30.339Z,20.87
2017-12-16T02:11:57.854Z,21.47
2017-12-16T02:14:25.376Z,20.23
2017-12-16T02:16:52.885Z,29.27
2017-12-16T02:19:20.406Z,22.77
2017-12-16T02:21:47.933Z,27.17
2017-12-16T02:24:15.430Z,23.80
2017-12-16T02:26:42.944Z,26.63
2017-12-16T02:29:10.429Z,25.83
2017-12-16T02:31:37.950Z,29.20
2017-12-16T02:34:05.439Z,23.53
2017-12-16T02:36:32.923Z,25.57
2017-12-16T02:39:00.454Z,21.03
2017-12-16T02:41:28.729Z,20.77
2017-12-16T02:43:56.234Z,29.27
2017-12-16T02:46:23.762Z,25.83
2017-12-16T02:48:51.268Z,29.97
2017-12-16T02:51:18.767Z,26.57
2017-12-16T02:53:46.304Z,28.87
2017-12-16T02:56:13.812Z,25.13
2017-12-16T02:58:41.336Z,24.53
2017-12-16T03:01:08.820Z,25.37
2017-12-16T03:03:36.316Z,23.43
2017-12-16T03:06:03.801Z,24.53
2017-12-16T03:08:31.300Z,26.10
2017-12-16T03:10:58.779Z,25.93
2017-12-16T03:13:26.260Z,26.40
2017-12-16T03:15:53.756Z,27.43
2017-12-16T03:18:21.329Z,26.53
2017-12-16T03:20:48.846Z,25.80
2017-12-16T03:23:16.319Z,25.63
2017-12-16T03:25:43.822Z,29.03
2017-12-16T03:28:11.290Z,30.67
2017-12-16T03:30:38.787Z,23.33
2017-12-16T03:33:06.278Z,26.30
2017-12-16T03:35:33.762Z,30.90
2017-12-16T03:38:01.268Z,34.43
2017-12-16T03:40:28.781Z,30.23
2017-12-16T03:42:56.276Z,27.93
2017-12-16T03:45:23.776Z,29.97
2017-12-16T03:47:51.256Z,30.40
2017-12-16T03:50:18.728Z,29.50
2017-12-16T03:52:46.198Z,38.63
2017-12-16T03:55:13.669Z,38.53
2017-12-16T03:57:41.155Z,37.83
2017-12-16T04:00:08.634Z,43.97
2017-12-16T04:02:36.144Z,41.37
2017-12-16T04:05:03.613Z,41.60
2017-12-16T04:07:31.112Z,44.00
2017-12-16T04:09:58.612Z,41.50
2017-12-16T04:12:26.176Z,45.30
2017-12-16T04:14:53.609Z,44.43
2017-12-16T04:17:21.097Z,42.67
2017-12-16T04:19:48.605Z,41.13
2017-12-16T04:22:16.080Z,40.47
2017-12-16T04:24:43.646Z,39.17
2017-12-16T04:27:11.134Z,45.50
2017-12-16T04:29:38.660Z,38.97
2017-12-16T04:32:06.185Z,43.90
2017-12-16T04:34:33.664Z,48.63
2017-12-16T04:37:01.167Z,40.13
2017-12-16T04:39:28.666Z,46.80
2017-12-16T04:41:56.149Z,47.63
2017-12-16T04:44:23.646Z,39.47
2017-12-16T04:46:51.153Z,46.60
2017-12-16T04:49:18.648Z,42.17
2017-12-16T04:51:46.170Z,46.90
2017-12-16T04:54:13.687Z,45.00
2017-12-16T04:56:41.190Z,38.40
2017-12-16T04:59:08.669Z,49.37
2017-12-16T05:01:36.149Z,45.00
2017-12-16T05:04:03.707Z,50.07
2017-12-16T05:06:31.233Z,46.67
2017-12-16T05:08:58.744Z,49.03
2017-12-16T05:11:26.248Z,50.37
2017-12-16T05:13:53.726Z,49.33
2017-12-16T05:16:21.202Z,49.97
2017-12-16T05:18:48.682Z,44.63
2017-12-16T05:21:16.178Z,57.07
2017-12-16T05:23:43.737Z,47.93
2017-12-16T05:26:11.280Z,53.83
2017-12-16T05:28:38.797Z,48.83
2017-12-16T05:31:06.424Z,50.03
2017-12-16T05:33:33.943Z,58.10
2017-12-16T05:36:01.440Z,51.50
2017-12-16T05:38:28.960Z,50.57
2017-12-16T05:40:56.516Z,45.40
2017-12-16T05:43:24.029Z,43.83
2017-12-16T05:45:51.624Z,49.03
2017-12-16T05:48:19.139Z,43.30
2017-12-16T05:50:46.718Z,42.87
2017-12-16T05:53:14.226Z,48.13
2017-12-16T05:55:41.778Z,45.53
2017-12-16T05:58:09.253Z,43.53
2017-12-16T06:00:36.718Z,41.17
2017-12-16T06:03:04.177Z,46.07
2017-12-16T06:05:31.658Z,46.93
2017-12-16T06:07:59.149Z,45.13
2017-12-16T06:10:26.623Z,47.47
2017-12-16T06:12:54.116Z,42.37
2017-12-16T06:15:21.612Z,47.93
2017-12-16T06:17:49.115Z,42.07
2017-12-16T06:20:16.582Z,43.17
2017-12-16T06:22:44.089Z,42.83
2017-12-16T06:25:11.564Z,50.87
2017-12-16T06:27:39.038Z,46.00
2017-12-16T06:30:06.529Z,45.53
2017-12-16T06:32:34.042Z,55.63
2017-12-16T06:35:01.533Z,47.23
2017-12-16T06:37:29.027Z,52.60
2017-12-16T06:39:56.530Z,56.57
2017-12-16T06:42:26.918Z,51.03
2017-12-16T06:44:54.417Z,48.53
2017-12-16T06:47:21.921Z,51.80
2017-12-16T06:49:49.414Z,47.93
2017-12-16T06:52:16.931Z,51.60
2017-12-16T06:54:44.410Z,52.70
2017-12-16T06:57:11.913Z,59.17
2017-12-16T06:59:39.440Z,55.43
2017-12-16T07:02:06.923Z,53.73
2017-12-16T07:04:35.338Z,55.67
2017-12-16T07:07:02.815Z,55.90
2017-12-16T07:09:30.304Z,54.37
2017-12-16T07:11:57.783Z,57.87
2017-12-16T07:14:25.292Z,58.73
2017-12-16T07:16:52.781Z,61.70
2017-12-16T07:19:20.341Z,52.07
2017-12-16T07:21:47.864Z,56.00
2017-12-16T07:24:15.341Z,60.50
2017-12-16T07:26:42.826Z,62.40
2017-12-16T07:29:10.469Z,59.97
2017-12-16T07:31:38.137Z,55.20
2017-12-16T07:34:05.726Z,60.57
2017-12-16T07:36:33.255Z,63.67
2017-12-16T07:39:00.758Z,70.97
2017-12-16T07:41:28.255Z,66.70
2017-12-16T07:43:55.745Z,58.17
2017-12-16T07:46:23.272Z,67.40
2017-12-16T07:48:50.755Z,70.83
2017-12-16T07:51:18.383Z,63.33
2017-12-16T07:53:46.668Z,68.17
2017-12-16T07:56:14.187Z,59.80
2017-12-16T07:58:41.695Z,77.17
2017-12-16T08:01:09.243Z,70.73
2017-12-16T08:03:36.743Z,66.67
2017-12-16T08:06:04.233Z,66.27
2017-12-16T08:08:31.736Z,61.20
2017-12-16T08:10:59.330Z,62.60
2017-12-16T08:13:26.871Z,72.67
2017-12-16T08:15:54.367Z,69.83
2017-12-16T08:18:21.841Z,69.03
2017-12-16T08:20:49.353Z,67.37
2017-12-16T08:23:16.862Z,64.63
2017-12-16T08:25:44.475Z,62.87
2017-12-16T08:28:11.979Z,57.83
2017-12-16T08:30:39.500Z,62.17
2017-12-16T08:33:06.968Z,66.10
2017-12-16T08:35:34.614Z,57.63
2017-12-16T08:38:02.217Z,69.87
2017-12-16T08:40:30.185Z,66.53
2017-12-16T08:42:57.825Z,68.33
2017-12-16T08:45:25.338Z,65.07
2017-12-16T08:47:52.812Z,67.93
2017-12-16T08:50:20.318Z,61.50
2017-12-16T08:52:47.822Z,58.43
2017-12-16T08:55:15.952Z,60.87
2017-12-16T08:57:43.483Z,68.17
2017-12-16T09:00:10.970Z,62.03
2017-12-16T09:02:38.496Z,56.33
2017-12-16T09:05:06.677Z,57.80
2017-12-16T09:07:34.162Z,56.97
2017-12-16T09:10:01.689Z,53.33
2017-12-16T09:12:29.162Z,57.53
2017-12-16T09:14:57.093Z,59.17
2017-12-16T09:17:24.633Z,55.63
2017-12-16T09:19:54.667Z,53.67
2017-12-16T09:22:22.214Z,52.97
2017-12-16T09:24:49.748Z,47.20
2017-12-16T09:27:17.266Z,57.43
2017-12-16T09:29:44.756Z,54.50
2017-12-16T09:32:12.250Z,54.00
2017-12-16T09:34:39.782Z,58.30
2017-12-16T09:37:07.755Z,58.90
2017-12-16T09:39:35.298Z,55.80
2017-12-16T09:42:03.266Z,59.67
2017-12-16T09:44:31.961Z,56.93
2017-12-16T09:46:59.445Z,66.87
2017-12-16T09:49:27.412Z,49.47
2017-12-16T09:51:54.986Z,58.67
2017-12-16T09:54:22.874Z,56.10
2017-12-16T09:56:50.411Z,55.50
2017-12-16T09:59:17.888Z,54.20
2017-12-16T10:01:45.361Z,52.87
2017-12-16T10:04:12.899Z,58.97
2017-12-16T10:06:40.382Z,53.53
2017-12-16T10:09:07.902Z,50.40
2017-12-16T10:11:35.365Z,57.47
2017-12-16T10:14:02.854Z,50.43
2017-12-16T10:16:30.354Z,53.33
2017-12-16T10:18:57.825Z,52.17
2017-12-16T10:21:25.299Z,50.20
2017-12-16T10:23:52.798Z,50.77
2017-12-16T10:26:20.296Z,45.43
2017-12-16T10:28:47.765Z,49.30
2017-12-16T10:31:15.281Z,50.23
2017-12-16T10:33:42.762Z,49.47
2017-12-16T10:36:10.266Z,43.07
2017-12-16T10:38:39.776Z,39.40
2017-12-16T10:41:07.357Z,45.73
2017-12-16T10:43:35.335Z,46.73
2017-12-16T10:46:02.814Z,42.30
2017-12-16T10:48:30.320Z,44.50
2017-12-16T10:50:57.796Z,42.93
2017-12-16T10:53:25.301Z,44.63
2017-12-16T10:55:52.785Z,39.50
2017-12-16T10:58:20.276Z,42.63
2017-12-16T11:00:53.281Z,45.30
2017-12-16T11:03:20.784Z,51.47
2017-12-16T11:05:48.256Z,51.00
2017-12-16T11:08:15.730Z,49.90
2017-12-16T11:10:43.220Z,41.10
2017-12-16T11:13:10.709Z,45.07
2017-12-16T11:15:38.204Z,40.30
2017-12-16T11:18:05.677Z,42.17
2017-12-16T11:20:33.172Z,39.90
2017-12-16T11:23:00.671Z,37.57
2017-12-16T11:25:28.142Z,35.67
2017-12-16T11:27:55.632Z,37.53
2017-12-16T11:30:23.126Z,42.07
2017-12-16T11:32:50.617Z,42.17
2017-12-16T11:35:18.466Z,39.43
2017-12-16T11:37:45.946Z,35.70
2017-12-16T11:40:13.512Z,40.13
2017-12-16T11:42:41.022Z,38.17
2017-12-16T11:45:08.527Z,35.73
2017-12-16T11:47:36.059Z,30.67
2017-12-16T11:50:03.537Z,37.77
2017-12-16T11:52:31.033Z,35.57
2017-12-16T11:54:58.793Z,33.73
2017-12-16T11:57:26.285Z,36.63
2017-12-16T11:59:54.245Z,36.30
2017-12-16T12:02:21.745Z,37.33
2017-12-16T12:04:49.272Z,34.63
2017-12-16T12:07:16.750Z,32.23
2017-12-16T12:09:44.253Z,35.53
2017-12-16T12:12:12.214Z,34.13
2017-12-16T12:14:39.707Z,37.20
2017-12-16T12:17:07.186Z,33.47
2017-12-16T12:19:34.668Z,32.37
2017-12-16T12:22:02.157Z,33.33
2017-12-16T12:24:29.656Z,31.43
2017-12-16T12:26:57.125Z,35.23
2017-12-16T12:29:24.639Z,30.03
2017-12-16T12:31:52.122Z,22.67
2017-12-16T12:34:19.620Z,28.20
2017-12-16T12:36:47.094Z,24.57
2017-12-16T12:39:14.587Z,30.77
2017-12-16T12:41:42.085Z,28.33
2017-12-16T12:44:10.229Z,30.50
2017-12-16T12:46:37.722Z,27.93
2017-12-16T12:49:05.206Z,31.80
2017-12-16T12:51:32.666Z,30.63
2017-12-16T12:54:00.199Z,32.43
2017-12-16T12:56:27.662Z,30.63
2017-12-16T12:58:55.156Z,30.43
2017-12-16T13:01:22.639Z,31.90
2017-12-16T13:03:50.134Z,34.93
2017-12-16T13:06:17.610Z,31.90
2017-12-16T13:08:45.094Z,34.23
2017-12-16T13:11:12.590Z,31.13
2017-12-16T13:13:40.062Z,35.07
2017-12-16T13:16:07.549Z,35.17
2017-12-16T13:18:35.012Z,35.73
2017-12-16T13:21:02.503Z,31.53
2017-12-16T13:23:29.987Z,35.43
2017-12-16T13:25:57.463Z,30.30
2017-12-16T13:28:25.027Z,38.93
2017-12-16T13:30:52.521Z,37.93
2017-12-16T13:33:20.006Z,32.03
2017-12-16T13:35:47.504Z,30.80
2017-12-16T13:38:15.010Z,29.83
2017-12-16T13:40:42.535Z,31.87
2017-12-16T13:43:10.034Z,38.17
2017-12-16T13:45:37.536Z,28.33
2017-12-16T13:48:05.006Z,29.17
2017-12-16T13:50:32.511Z,29.80
2017-12-16T13:53:00.052Z,37.30
2017-12-16T13:55:28.484Z,28.60
2017-12-16T13:57:56.011Z,25.50
2017-12-16T14:00:23.591Z,33.13
2017-12-16T14:02:51.101Z,25.97
2017-12-16T14:05:18.604Z,27.40
2017-12-16T14:07:46.197Z,26.37
2017-12-16T14:10:13.749Z,23.13
2017-12-16T14:12:41.236Z,24.60
2017-12-16T14:15:08.733Z,32.07
2017-12-16T14:17:36.435Z,29.50
2017-12-16T14:20:03.963Z,25.07
2017-12-16T14:22:31.536Z,24.17
2017-12-16T14:24:59.014Z,30.27
2017-12-16T14:27:26.605Z,26.90
2017-12-16T14:29:54.087Z,26.40
2017-12-16T14:32:21.713Z,24.23
2017-12-16T14:34:49.338Z,28.23
2017-12-16T14:37:16.832Z,36.10
2017-12-16T14:39:44.347Z,28.73
2017-12-16T14:42:12.508Z,29.07
2017-12-16T14:44:40.196Z,26.17
2017-12-16T14:47:07.740Z,26.77
2017-12-16T14:49:35.228Z,28.80
2017-12-16T14:52:02.749Z,31.80
2017-12-16T14:54:30.227Z,27.03
2017-12-16T14:56:57.769Z,27.83
2017-12-16T14:59:25.353Z,30.60
2017-12-16T15:01:52.836Z,24.23
2017-12-16T15:04:20.359Z,27.50
2017-12-16T15:06:47.985Z,25.07
2017-12-16T15:09:15.476Z,25.73
2017-12-16T15:11:42.988Z,23.80
2017-12-16T15:14:10.495Z,23.40
2017-12-16T15:16:38.104Z,22.33
2017-12-16T15:19:05.691Z,23.23
2017-12-16T15:21:33.163Z,22.67
2017-12-16T15:24:00.683Z,21.17
2017-12-16T15:26:28.181Z,25.37
2017-12-16T15:28:55.797Z,22.33
2017-12-16T15:31:23.361Z,20.00
2017-12-16T15:33:50.866Z,17.93
2017-12-16T15:36:18.473Z,19.87
2017-12-16T15:38:46.001Z,18.80
2017-12-16T15:41:13.525Z,17.93
2017-12-16T15:43:41.008Z,15.10
2017-12-16T15:46:08.496Z,18.37
2017-12-16T15:48:36.000Z,18.50
2017-12-16T15:51:03.470Z,17.07
2017-12-16T15:53:31.017Z,14.87
2017-12-16T15:55:59.319Z,18.90
2017-12-16T15:58:27.661Z,20.03
2017-12-16T16:00:55.234Z,26.73
2017-12-16T16:03:22.718Z,17.20
2017-12-16T16:05:50.229Z,16.17
2017-12-16T16:08:17.710Z,17.23
2017-12-16T16:10:45.273Z,20.73
2017-12-16T16:13:12.767Z,20.77
2017-12-16T16:15:40.285Z,15.67
2017-12-16T16:18:07.820Z,19.60
2017-12-16T16:20:35.509Z,14.50
2017-12-16T16:23:03.010Z,21.17
2017-12-16T16:25:30.592Z,21.53
2017-12-16T16:27:58.111Z,19.87
2017-12-16T16:30:25.628Z,15.00
2017-12-16T16:32:53.115Z,13.97
2017-12-16T16:35:20.582Z,11.37
2017-12-16T16:37:48.044Z,18.07
2017-12-16T16:40:15.645Z,12.87
2017-12-16T16:42:43.165Z,15.03
2017-12-16T16:45:10.688Z,15.23
2017-12-16T16:47:38.235Z,12.00
2017-12-16T16:50:05.801Z,12.63
2017-12-16T16:52:33.373Z,13.00
2017-12-16T16:55:00.860Z,10.87
2017-12-16T16:57:28.392Z,11.27
2017-12-16T16:59:55.866Z,13.43
2017-12-16T17:02:23.390Z,8.87
2017-12-16T17:04:50.860Z,10.17
2017-12-16T17:07:18.344Z,13.83
2017-12-16T17:09:47.596Z,11.70
2017-12-16T17:12:15.058Z,11.37
2017-12-16T17:14:43.097Z,10.13
2017-12-16T17:17:10.576Z,11.70
2017-12-16T17:19:38.801Z,12.20
2017-12-16T17:22:06.310Z,12.40
2017-12-16T17:24:33.895Z,13.00
2017-12-16T17:27:01.419Z,18.33
2017-12-16T17:29:28.935Z,13.70
2017-12-16T17:31:56.468Z,10.67
2017-12-16T17:34:23.978Z,12.47
2017-12-16T17:36:51.476Z,17.07
2017-12-16T17:39:18.928Z,10.73
2017-12-16T17:41:46.506Z,13.60
2017-12-16T17:44:14.016Z,15.27
2017-12-16T17:46:41.553Z,17.13
2017-12-16T17:49:09.120Z,16.03
2017-12-16T17:51:37.102Z,17.47
2017-12-16T17:54:04.588Z,13.80
2017-12-16T17:56:33.304Z,13.23
2017-12-16T17:59:00.982Z,20.80
2017-12-16T18:01:29.203Z,12.63
2017-12-16T18:03:56.738Z,15.97
2017-12-16T18:06:24.706Z,11.17
2017-12-16T18:08:52.265Z,19.13
2017-12-16T18:11:19.826Z,15.37
2017-12-16T18:13:47.311Z,10.77
2017-12-16T18:16:15.592Z,13.60
2017-12-16T18:18:43.873Z,12.00
2017-12-16T18:21:11.354Z,16.13
2017-12-16T18:23:38.823Z,11.50
2017-12-16T18:26:06.344Z,11.60
2017-12-16T18:28:33.827Z,10.70
2017-12-16T18:31:01.297Z,10.27
2017-12-16T18:33:28.823Z,11.47
2017-12-16T18:35:56.313Z,12.93
2017-12-16T18:38:23.802Z,11.70
2017-12-16T18:40:51.351Z,11.67
2017-12-16T18:43:18.848Z,10.10
2017-12-16T18:45:46.935Z,12.37
2017-12-16T18:48:15.441Z,9.43
2017-12-16T18:50:43.560Z,10.63
2017-12-16T18:53:11.774Z,9.63
2017-12-16T18:55:39.293Z,13.33
2017-12-16T18:58:06.797Z,15.13
2017-12-16T19:00:34.327Z,12.50
2017-12-16T19:03:01.818Z,10.33
2017-12-16T19:05:29.306Z,16.67
2017-12-16T19:07:56.808Z,20.47
2017-12-16T19:10:24.571Z,14.83
2017-12-16T19:12:52.122Z,13.13
2017-12-16T19:15:19.662Z,13.13
2017-12-16T19:17:47.204Z,13.77
2017-12-16T19:20:17.103Z,12.83
2017-12-16T19:22:44.625Z,12.03
2017-12-16T19:25:12.118Z,14.03
2017-12-16T19:27:39.621Z,16.40
2017-12-16T19:30:07.152Z,13.93
2017-12-16T19:32:34.674Z,13.37
2017-12-16T19:35:02.200Z,15.43
2017-12-16T19:37:30.536Z,14.13
2017-12-16T19:39:58.040Z,14.83
2017-12-16T19:42:25.546Z,14.97
2017-12-16T19:44:53.551Z,17.23
2017-12-16T19:47:21.049Z,13.27
2017-12-16T19:49:48.589Z,14.50
2017-12-16T19:52:16.875Z,14.00
2017-12-16T19:54:44.444Z,13.43
2017-12-16T19:57:11.920Z,14.77
2017-12-16T19:59:39.478Z,11.37
2017-12-16T20:02:06.996Z,11.37
2017-12-16T20:04:34.636Z,12.17
2017-12-16T20:07:03.128Z,11.20
2017-12-16T20:09:30.638Z,9.80
2017-12-16T20:11:58.137Z,12.20
2017-12-16T20:14:26.223Z,12.97
2017-12-16T20:16:53.729Z,12.43
2017-12-16T20:19:21.276Z,9.47
2017-12-16T20:21:48.811Z,9.70
2017-12-16T20:24:16.290Z,13.60
2017-12-16T20:26:43.863Z,10.23
2017-12-16T20:29:11.358Z,10.00
2017-12-16T20:31:38.831Z,13.07
2017-12-16T20:34:06.338Z,9.33
2017-12-16T20:36:33.839Z,11.77
2017-12-16T20:39:01.604Z,11.87
2017-12-16T20:41:29.452Z,7.27
2017-12-16T20:43:56.918Z,7.73
2017-12-16T20:46:24.541Z,9.27
2017-12-16T20:48:52.084Z,8.47
2017-12-16T20:51:19.597Z,8.17
2017-12-16T20:53:47.049Z,8.20
2017-12-16T20:56:14.539Z,7.50
2017-12-16T20:58:41.997Z,9.33
2017-12-16T21:01:12.536Z,7.23
2017-12-16T21:03:40.040Z,9.10
2017-12-16T21:06:07.546Z,11.77
2017-12-16T21:08:35.301Z,9.33
2017-12-16T21:11:03.390Z,7.60
2017-12-16T21:13:30.916Z,9.33
2017-12-16T21:15:59.167Z,8.37
2017-12-16T21:18:26.808Z,10.97
2017-12-16T21:20:54.590Z,10.33
2017-12-16T21:23:22.413Z,8.47
2017-12-16T21:25:50.061Z,10.57
2017-12-16T21:28:17.655Z,9.80
2017-12-16T21:30:45.145Z,9.67
2017-12-16T21:33:12.644Z,12.40
2017-12-16T21:35:40.634Z,14.30
2017-12-16T21:38:08.158Z,10.50
2017-12-16T21:40:35.994Z,11.67
2017-12-16T21:43:03.517Z,14.83
2017-12-16T21:45:31.037Z,13.47
2017-12-16T21:47:58.570Z,13.50
2017-12-16T21:50:26.064Z,9.27
2017-12-16T21:52:55.016Z,11.53
2017-12-16T21:55:22.813Z,15.97
2017-12-16T21:57:50.293Z,12.97
2017-12-16T22:00:17.808Z,10.47
2017-12-16T22:02:45.299Z,12.37
2017-12-16T22:05:13.011Z,11.20
2017-12-16T22:07:40.482Z,11.47
2017-12-16T22:10:07.991Z,11.70
2017-12-16T22:12:35.875Z,9.10
2017-12-16T22:15:03.386Z,11.03
2017-12-16T22:17:30.884Z,9.30
2017-12-16T22:19:58.936Z,11.23
2017-12-16T22:22:26.417Z,12.97
2017-12-16T22:24:53.915Z,11.10
2017-12-16T22:27:21.460Z,18.77
2017-12-16T22:29:48.948Z,8.63
2017-12-16T22:32:16.597Z,11.87
2017-12-16T22:34:44.089Z,14.10
2017-12-16T22:37:11.644Z,11.00
2017-12-16T22:39:39.214Z,14.83
2017-12-16T22:42:07.615Z,10.37
2017-12-16T22:44:35.201Z,10.50
2017-12-16T22:47:02.751Z,16.50
2017-12-16T22:49:30.245Z,12.07
2017-12-16T22:51:57.714Z,9.60
2017-12-16T22:54:25.185Z,12.80
2017-12-16T22:56:52.849Z,18.50
2017-12-16T22:59:20.381Z,11.43
2017-12-16T23:01:48.387Z,15.30
2017-12-16T23:04:15.876Z,15.27
2017-12-16T23:06:43.380Z,11.63
2017-12-16T23:09:10.885Z,12.63
2017-12-16T23:11:38.366Z,14.43
2017-12-16T23:14:05.859Z,9.10
2017-12-16T23:16:33.983Z,11.70
2017-12-16T23:19:02.586Z,14.57
2017-12-16T23:21:30.888Z,10.27
2017-12-16T23:23:58.369Z,12.20
2017-12-16T23:26:25.839Z,13.67
2017-12-16T23:28:53.313Z,11.13
2017-12-16T23:31:20.794Z,12.67
2017-12-16T23:33:48.267Z,13.17
2017-12-16T23:36:16.490Z,17.30
2017-12-16T23:38:44.026Z,13.97
2017-12-16T23:41:11.534Z,15.70
2017-12-16T23:43:39.208Z,14.83
2017-12-16T23:46:06.753Z,15.43
2017-12-16T23:48:34.276Z,15.73
2017-12-16T23:51:01.750Z,14.30
2017-12-16T23:53:29.226Z,15.20
2017-12-16T23:55:56.717Z,14.77
2017-12-16T23:58:24.223Z,16.03
